Time;durP1;ratioP1;P1;durP2;ratioP2;P2;SDS_P1;SDS_P2;PMS_P1;PMS_P2;Temp;Humidity;BMP_temperature;BMP_pressure;BME280_temperature;BME280_humidity;BME280_pressure;Samples;Min_cycle;Max_cycle;Signal;HPM_P1;HPM_P2
2023/12/08 00:01:19;;;;;;;24.23;14.13;;;;;;;;;;5068814;28;20134;-84
2023/12/08 00:03:45;;;;;;;27.50;14.45;;;;;;;;;;5065476;28;20095;-84
2023/12/08 00:06:11;;;;;;;22.77;13.73;;;;;;;;;;5059117;28;20021;-84
2023/12/08 00:08:37;;;;;;;24.92;14.45;;;;;;;;;;5068677;28;20036;-84
2023/12/08 00:11:04;;;;;;;26.10;14.13;;;;;;;;;;5063350;28;20062;-84
2023/12/08 00:13:30;;;;;;;24.75;14.48;;;;;;;;;;5069416;28;20112;-84
2023/12/08 00:15:56;;;;;;;24.95;14.57;;;;;;;;;;5064861;28;20063;-84
2023/12/08 00:18:22;;;;;;;24.05;13.95;;;;;;;;;;5065572;28;20570;-84
2023/12/08 00:20:48;;;;;;;23.80;13.75;;;;;;;;;;5059681;28;20068;-85
2023/12/08 00:23:14;;;;;;;24.05;13.75;;;;;;;;;;5058499;28;20024;-84
2023/12/08 00:25:41;;;;;;;26.77;15.18;;;;;;;;;;5068909;28;20013;-85
2023/12/08 00:28:07;;;;;;;23.85;13.18;;;;;;;;;;5068689;28;20613;-84
2023/12/08 00:30:33;;;;;;;23.63;13.77;;;;;;;;;;5053932;28;20095;-84
2023/12/08 00:32:59;;;;;;;23.73;13.65;;;;;;;;;;5056179;28;20121;-84
2023/12/08 00:35:25;;;;;;;22.75;13.45;;;;;;;;;;5070088;28;20024;-84
2023/12/08 00:37:51;;;;;;;25.55;14.77;;;;;;;;;;5058982;28;20016;-84
2023/12/08 00:40:17;;;;;;;24.33;13.90;;;;;;;;;;5069008;28;20020;-84
2023/12/08 00:42:44;;;;;;;22.45;13.32;;;;;;;;;;5068764;28;20013;-85
2023/12/08 00:45:10;;;;;;;23.23;13.50;;;;;;;;;;5068951;28;20016;-85
2023/12/08 00:47:36;;;;;;;21.58;13.65;;;;;;;;;;5061200;28;20461;-84
2023/12/08 00:50:02;;;;;;;20.95;13.52;;;;;;;;;;5069145;28;20449;-85
2023/12/08 00:52:28;;;;;;;21.30;13.27;;;;;;;;;;5068978;28;20017;-84
2023/12/08 00:54:54;;;;;;;21.08;12.77;;;;;;;;;;5057529;28;20384;-84
2023/12/08 00:57:20;;;;;;;21.13;12.85;;;;;;;;;;5055451;28;20052;-84
2023/12/08 00:59:46;;;;;;;25.50;12.98;;;;;;;;;;5059304;28;20104;-84
2023/12/08 01:02:12;;;;;;;22.90;12.70;;;;;;;;;;5059608;28;20121;-84
2023/12/08 01:04:38;;;;;;;22.77;13.20;;;;;;;;;;5072249;28;20170;-85
2023/12/08 01:07:04;;;;;;;24.67;13.75;;;;;;;;;;5041858;28;20012;-84
2023/12/08 01:09:30;;;;;;;22.10;14.00;;;;;;;;;;5065280;28;20013;-85
2023/12/08 01:11:56;;;;;;;20.33;12.18;;;;;;;;;;5055031;28;20021;-84
2023/12/08 01:14:22;;;;;;;19.35;12.10;;;;;;;;;;5064660;28;20139;-84
2023/12/08 01:16:48;;;;;;;21.23;12.40;;;;;;;;;;5067536;28;20103;-83
2023/12/08 01:19:14;;;;;;;19.77;12.15;;;;;;;;;;5069280;28;20021;-84
2023/12/08 01:21:41;;;;;;;21.55;12.90;;;;;;;;;;5058247;28;20049;-85
2023/12/08 01:24:07;;;;;;;24.10;14.23;;;;;;;;;;5067359;28;20256;-83
2023/12/08 01:26:33;;;;;;;24.33;13.82;;;;;;;;;;5066075;28;20292;-84
2023/12/08 01:28:59;;;;;;;23.02;14.15;;;;;;;;;;5061256;28;20017;-84
2023/12/08 01:31:25;;;;;;;22.35;13.20;;;;;;;;;;5058253;28;20017;-84
2023/12/08 01:33:51;;;;;;;20.63;12.90;;;;;;;;;;5057999;28;20265;-84
2023/12/08 01:36:17;;;;;;;19.73;11.15;;;;;;;;;;5064769;28;20542;-84
2023/12/08 01:38:47;;;;;;;21.95;13.55;;;;;;;;;;5063658;28;20017;-84
2023/12/08 01:41:16;;;;;;;21.73;12.17;;;;;;;;;;5067406;28;20020;-84
2023/12/08 01:43:46;;;;;;;23.93;13.07;;;;;;;;;;5059902;28;20013;-84
2023/12/08 01:46:16;;;;;;;21.55;12.50;;;;;;;;;;5043819;28;20021;-85
2023/12/08 01:48:42;;;;;;;22.95;13.68;;;;;;;;;;5071651;28;20016;-84
2023/12/08 01:51:12;;;;;;;24.08;13.40;;;;;;;;;;5072455;28;20153;-84
2023/12/08 01:53:39;;;;;;;22.65;13.73;;;;;;;;;;5055584;28;20060;-84
2023/12/08 01:56:05;;;;;;;24.17;13.30;;;;;;;;;;5065580;28;20071;-84
2023/12/08 01:58:31;;;;;;;23.45;13.10;;;;;;;;;;5052193;28;20013;-83
2023/12/08 02:00:58;;;;;;;24.48;13.98;;;;;;;;;;5056617;28;20048;-84
2023/12/08 02:03:25;;;;;;;23.50;12.63;;;;;;;;;;5051463;28;20372;-84
2023/12/08 02:05:51;;;;;;;23.08;13.80;;;;;;;;;;5071173;28;20017;-84
2023/12/08 02:08:18;;;;;;;19.77;12.38;;;;;;;;;;5058872;28;20373;-84
2023/12/08 02:10:44;;;;;;;22.98;11.80;;;;;;;;;;5070392;28;20056;-85
2023/12/08 02:13:16;;;;;;;22.40;13.27;;;;;;;;;;5061749;28;20021;-84
2023/12/08 02:15:42;;;;;;;24.83;13.85;;;;;;;;;;5068948;28;20027;-85
2023/12/08 02:18:08;;;;;;;22.92;13.70;;;;;;;;;;5070718;28;20464;-85
2023/12/08 02:20:34;;;;;;;23.17;13.07;;;;;;;;;;5066287;28;20036;-84
2023/12/08 02:23:04;;;;;;;22.40;13.70;;;;;;;;;;5060471;28;20004;-84
2023/12/08 02:25:30;;;;;;;25.00;13.50;;;;;;;;;;5071101;28;20021;-84
2023/12/08 02:27:56;;;;;;;21.20;13.43;;;;;;;;;;5064073;28;20112;-84
2023/12/08 02:30:22;;;;;;;23.65;14.02;;;;;;;;;;5065433;28;20066;-84
2023/12/08 02:32:57;;;;;;;21.92;13.30;;;;;;;;;;5063457;28;20112;-84
2023/12/08 02:35:24;;;;;;;20.92;11.90;;;;;;;;;;5052308;28;20041;-84
2023/12/08 02:37:51;;;;;;;23.50;13.35;;;;;;;;;;5067928;28;20051;-84
2023/12/08 02:40:18;;;;;;;22.17;13.82;;;;;;;;;;5072081;28;20016;-84
2023/12/08 02:42:44;;;;;;;23.15;13.70;;;;;;;;;;5067131;28;20423;-84
2023/12/08 02:45:10;;;;;;;21.38;13.45;;;;;;;;;;5060332;28;20023;-84
2023/12/08 02:47:36;;;;;;;20.85;13.18;;;;;;;;;;5058555;28;20105;-84
2023/12/08 02:50:02;;;;;;;23.67;14.75;;;;;;;;;;5072224;28;20055;-84
2023/12/08 02:52:28;;;;;;;22.50;13.32;;;;;;;;;;5055117;28;20013;-84
2023/12/08 02:54:54;;;;;;;22.38;13.88;;;;;;;;;;5056333;28;20024;-84
2023/12/08 02:57:20;;;;;;;21.70;13.50;;;;;;;;;;5070378;28;20090;-84
2023/12/08 02:59:46;;;;;;;25.42;14.25;;;;;;;;;;5060969;28;20487;-84
2023/12/08 03:02:12;;;;;;;24.08;12.80;;;;;;;;;;5069830;28;20021;-84
2023/12/08 03:04:38;;;;;;;21.98;13.98;;;;;;;;;;5067384;28;20117;-84
2023/12/08 03:07:04;;;;;;;24.98;14.88;;;;;;;;;;5070823;28;20096;-84
2023/12/08 03:09:30;;;;;;;21.17;12.90;;;;;;;;;;5058528;28;20016;-84
2023/12/08 03:11:56;;;;;;;25.50;15.07;;;;;;;;;;5061549;28;20017;-84
2023/12/08 03:14:22;;;;;;;24.80;14.35;;;;;;;;;;5065482;28;20020;-83
2023/12/08 03:16:49;;;;;;;26.58;15.95;;;;;;;;;;5070959;28;20078;-84
2023/12/08 03:19:15;;;;;;;24.02;13.93;;;;;;;;;;5054319;28;20472;-84
2023/12/08 03:21:41;;;;;;;27.70;14.60;;;;;;;;;;5060360;28;20492;-84
2023/12/08 03:24:07;;;;;;;25.08;15.23;;;;;;;;;;5056663;28;20016;-84
2023/12/08 03:26:33;;;;;;;28.58;15.65;;;;;;;;;;5070847;28;20019;-84
2023/12/08 03:28:59;;;;;;;27.52;15.40;;;;;;;;;;5071126;28;20017;-84
2023/12/08 03:31:26;;;;;;;25.85;16.10;;;;;;;;;;5057911;28;20040;-84
2023/12/08 03:33:52;;;;;;;27.30;15.73;;;;;;;;;;5055411;28;20028;-83
2023/12/08 03:36:19;;;;;;;30.00;16.35;;;;;;;;;;5069891;28;20028;-84
2023/12/08 03:38:45;;;;;;;26.70;15.35;;;;;;;;;;5069614;28;20069;-84
2023/12/08 03:41:11;;;;;;;29.60;16.58;;;;;;;;;;5064438;28;20032;-84
2023/12/08 03:43:38;;;;;;;29.50;16.02;;;;;;;;;;5068571;28;20012;-84
2023/12/08 03:46:05;;;;;;;29.92;14.63;;;;;;;;;;5067076;28;20015;-84
2023/12/08 03:48:31;;;;;;;32.40;17.27;;;;;;;;;;5058891;28;20028;-84
2023/12/08 03:50:57;;;;;;;30.58;16.98;;;;;;;;;;5066499;28;20032;-83
2023/12/08 03:53:23;;;;;;;32.08;15.63;;;;;;;;;;5069905;28;20036;-84
2023/12/08 03:55:49;;;;;;;31.15;15.63;;;;;;;;;;5059005;28;20019;-84
2023/12/08 03:58:15;;;;;;;32.58;16.73;;;;;;;;;;5050372;28;20103;-84
2023/12/08 04:00:41;;;;;;;34.53;17.52;;;;;;;;;;5056725;28;20391;-84
2023/12/08 04:03:07;;;;;;;32.78;15.77;;;;;;;;;;5069382;28;20545;-85
2023/12/08 04:05:33;;;;;;;34.28;15.75;;;;;;;;;;5066209;28;20104;-84
2023/12/08 04:08:04;;;;;;;35.33;16.25;;;;;;;;;;5049262;28;20005;-84
2023/12/08 04:10:30;;;;;;;36.88;18.15;;;;;;;;;;5054501;28;20013;-85
2023/12/08 04:12:56;;;;;;;41.28;18.27;;;;;;;;;;5049207;28;20067;-84
2023/12/08 04:15:22;;;;;;;34.40;17.65;;;;;;;;;;5049700;28;20469;-85
2023/12/08 04:17:48;;;;;;;35.50;18.23;;;;;;;;;;5063667;28;20009;-85
2023/12/08 04:20:14;;;;;;;38.35;17.88;;;;;;;;;;5059275;28;20017;-84
2023/12/08 04:22:40;;;;;;;39.10;17.17;;;;;;;;;;5064577;28;20041;-84
2023/12/08 04:25:06;;;;;;;38.80;18.38;;;;;;;;;;5065157;28;20052;-84
2023/12/08 04:27:32;;;;;;;38.55;18.77;;;;;;;;;;5064561;28;20380;-84
2023/12/08 04:29:58;;;;;;;39.92;18.30;;;;;;;;;;5060254;28;20177;-84
2023/12/08 04:32:24;;;;;;;37.33;18.38;;;;;;;;;;5067296;28;20107;-85
2023/12/08 04:34:50;;;;;;;39.15;17.98;;;;;;;;;;5073816;28;20099;-84
2023/12/08 04:37:16;;;;;;;42.40;18.70;;;;;;;;;;5073234;28;20059;-84
2023/12/08 04:39:42;;;;;;;41.13;19.65;;;;;;;;;;5072825;28;20017;-85
2023/12/08 04:42:08;;;;;;;41.83;18.42;;;;;;;;;;5058901;28;20052;-85
2023/12/08 04:44:34;;;;;;;41.55;18.88;;;;;;;;;;5053051;28;20454;-84
2023/12/08 04:47:00;;;;;;;44.13;19.90;;;;;;;;;;5052724;28;20021;-85
2023/12/08 04:49:26;;;;;;;46.65;21.33;;;;;;;;;;5059827;28;20009;-84
2023/12/08 04:51:53;;;;;;;50.00;21.15;;;;;;;;;;5067901;28;20028;-85
2023/12/08 04:54:18;;;;;;;50.78;21.42;;;;;;;;;;5072532;28;20016;-85
2023/12/08 04:56:44;;;;;;;44.63;21.33;;;;;;;;;;5072464;28;20031;-85
2023/12/08 04:59:10;;;;;;;53.13;21.95;;;;;;;;;;5062153;28;20351;-85
2023/12/08 05:01:37;;;;;;;47.22;20.98;;;;;;;;;;5059069;28;20032;-84
2023/12/08 05:04:03;;;;;;;50.90;22.10;;;;;;;;;;5053946;28;20024;-84
2023/12/08 05:06:29;;;;;;;53.22;22.38;;;;;;;;;;5070614;28;20039;-84
2023/12/08 05:08:56;;;;;;;52.67;22.70;;;;;;;;;;5072882;28;20013;-85
2023/12/08 05:11:22;;;;;;;54.90;23.38;;;;;;;;;;5059023;28;20020;-85
2023/12/08 05:13:48;;;;;;;55.15;23.73;;;;;;;;;;5071781;28;20023;-84
2023/12/08 05:16:15;;;;;;;57.55;24.38;;;;;;;;;;5073096;28;20028;-85
2023/12/08 05:18:41;;;;;;;57.03;23.48;;;;;;;;;;5067646;28;20017;-85
2023/12/08 05:21:08;;;;;;;54.88;22.70;;;;;;;;;;5072108;28;20077;-85
2023/12/08 05:23:34;;;;;;;57.13;23.27;;;;;;;;;;5072150;28;20017;-84
2023/12/08 05:26:00;;;;;;;57.35;23.05;;;;;;;;;;5065178;28;20009;-84
2023/12/08 05:28:26;;;;;;;63.45;24.83;;;;;;;;;;5073025;28;20012;-85
2023/12/08 05:30:53;;;;;;;63.60;25.40;;;;;;;;;;5072827;28;20061;-85
2023/12/08 05:33:19;;;;;;;60.08;24.73;;;;;;;;;;5053746;28;20045;-84
2023/12/08 05:35:45;;;;;;;63.70;24.88;;;;;;;;;;5051851;28;20025;-85
2023/12/08 05:38:11;;;;;;;66.30;24.83;;;;;;;;;;5060220;28;20562;-85
2023/12/08 05:40:37;;;;;;;61.17;23.52;;;;;;;;;;5051907;28;20021;-84
2023/12/08 05:43:04;;;;;;;63.83;26.25;;;;;;;;;;5059603;28;20103;-85
2023/12/08 05:45:30;;;;;;;64.90;25.17;;;;;;;;;;5052284;28;20064;-85
2023/12/08 05:47:56;;;;;;;63.67;25.40;;;;;;;;;;5065351;28;20048;-85
2023/12/08 05:50:22;;;;;;;64.65;25.02;;;;;;;;;;5064944;28;20100;-85
2023/12/08 05:52:48;;;;;;;67.35;26.52;;;;;;;;;;5055444;28;20532;-84
2023/12/08 05:55:14;;;;;;;71.15;25.67;;;;;;;;;;5071419;28;20028;-84
2023/12/08 05:57:40;;;;;;;75.22;27.48;;;;;;;;;;5072722;28;20024;-84
2023/12/08 06:00:10;;;;;;;71.15;27.75;;;;;;;;;;5071086;28;20017;-85
2023/12/08 06:02:36;;;;;;;68.50;27.70;;;;;;;;;;5072165;28;20032;-84
2023/12/08 06:05:02;;;;;;;68.88;28.00;;;;;;;;;;5072858;28;20016;-85
2023/12/08 06:07:28;;;;;;;76.18;29.42;;;;;;;;;;5064144;28;20021;-84
2023/12/08 06:09:54;;;;;;;74.70;29.13;;;;;;;;;;5051533;28;20040;-85
2023/12/08 06:12:20;;;;;;;73.55;27.80;;;;;;;;;;5057256;28;20027;-85
2023/12/08 06:14:46;;;;;;;76.68;28.52;;;;;;;;;;5072355;28;20020;-84
2023/12/08 06:17:12;;;;;;;71.72;30.63;;;;;;;;;;5062705;28;20027;-85
2023/12/08 06:19:39;;;;;;;75.70;28.98;;;;;;;;;;5072123;28;20021;-85
2023/12/08 06:22:05;;;;;;;75.07;28.77;;;;;;;;;;5068260;28;20036;-85
2023/12/08 06:24:31;;;;;;;80.88;29.85;;;;;;;;;;5052072;28;20013;-85
2023/12/08 06:26:57;;;;;;;70.25;28.83;;;;;;;;;;5065509;28;20061;-84
2023/12/08 06:29:23;;;;;;;69.00;28.13;;;;;;;;;;5071611;28;20028;-84
2023/12/08 06:31:49;;;;;;;73.93;29.30;;;;;;;;;;5071180;28;20023;-84
2023/12/08 06:34:15;;;;;;;73.78;28.35;;;;;;;;;;5060925;28;20120;-85
2023/12/08 06:36:51;;;;;;;67.45;28.10;;;;;;;;;;5065551;28;20024;-85
2023/12/08 06:39:17;;;;;;;73.82;29.65;;;;;;;;;;5056363;28;20028;-85
2023/12/08 06:41:43;;;;;;;71.15;29.75;;;;;;;;;;5068586;28;20086;-85
2023/12/08 06:44:09;;;;;;;68.13;26.20;;;;;;;;;;5055521;28;20017;-84
2023/12/08 06:46:35;;;;;;;71.35;28.52;;;;;;;;;;5070372;28;20400;-84
2023/12/08 06:49:02;;;;;;;71.60;28.83;;;;;;;;;;5065587;28;20461;-84
2023/12/08 06:51:29;;;;;;;68.63;28.02;;;;;;;;;;5056039;28;20009;-86
2023/12/08 06:53:55;;;;;;;68.20;27.92;;;;;;;;;;5060519;28;20112;-86
2023/12/08 06:56:22;;;;;;;62.60;27.13;;;;;;;;;;5051853;28;20021;-85
2023/12/08 06:58:48;;;;;;;75.03;29.80;;;;;;;;;;5053457;28;20485;-83
2023/12/08 07:01:14;;;;;;;74.40;30.10;;;;;;;;;;5055061;28;20016;-88
2023/12/08 07:03:40;;;;;;;69.25;28.40;;;;;;;;;;5055534;28;20021;-87
2023/12/08 07:06:06;;;;;;;78.43;30.05;;;;;;;;;;5054610;28;20454;-86
2023/12/08 07:08:32;;;;;;;71.53;27.63;;;;;;;;;;5054873;28;20017;-84
2023/12/08 07:10:58;;;;;;;63.47;27.48;;;;;;;;;;5059400;28;20029;-85
2023/12/08 07:13:24;;;;;;;66.25;27.23;;;;;;;;;;5055065;28;20464;-84
2023/12/08 07:15:50;;;;;;;67.63;27.33;;;;;;;;;;5054368;28;20016;-84
2023/12/08 07:18:17;;;;;;;70.85;27.55;;;;;;;;;;5058159;28;20027;-83
2023/12/08 07:20:43;;;;;;;68.38;28.15;;;;;;;;;;5069541;28;20044;-80
2023/12/08 07:23:10;;;;;;;70.22;28.92;;;;;;;;;;5069455;28;20021;-82
2023/12/08 07:25:36;;;;;;;72.75;29.75;;;;;;;;;;5068784;28;20024;-84
2023/12/08 07:28:02;;;;;;;70.68;28.58;;;;;;;;;;5055604;28;20012;-83
2023/12/08 07:30:28;;;;;;;63.80;27.58;;;;;;;;;;5070560;28;20009;-85
2023/12/08 07:32:54;;;;;;;67.18;27.35;;;;;;;;;;5068433;28;20059;-86
2023/12/08 07:35:20;;;;;;;69.10;27.90;;;;;;;;;;5066120;28;20021;-78
2023/12/08 07:37:46;;;;;;;66.38;29.17;;;;;;;;;;5055633;28;20332;-83
2023/12/08 07:40:12;;;;;;;72.60;27.48;;;;;;;;;;5069207;28;20016;-86
2023/12/08 07:42:38;;;;;;;72.13;27.15;;;;;;;;;;5070064;28;20025;-81
2023/12/08 07:45:05;;;;;;;67.97;29.00;;;;;;;;;;5051054;28;20013;-85
2023/12/08 07:47:32;;;;;;;70.35;27.70;;;;;;;;;;5069094;28;20027;-86
2023/12/08 07:49:58;;;;;;;72.90;28.50;;;;;;;;;;5050603;28;20017;-85
2023/12/08 07:52:24;;;;;;;73.40;30.13;;;;;;;;;;5048082;28;20021;-85
2023/12/08 07:54:50;;;;;;;79.03;30.77;;;;;;;;;;5050434;28;20074;-83
2023/12/08 07:57:16;;;;;;;75.05;30.02;;;;;;;;;;5048401;28;20027;-81
2023/12/08 07:59:42;;;;;;;75.03;29.92;;;;;;;;;;5054501;28;20019;-83
2023/12/08 08:02:08;;;;;;;70.88;28.92;;;;;;;;;;5048510;28;20120;-83
2023/12/08 08:04:34;;;;;;;73.45;29.17;;;;;;;;;;5049791;28;20121;-81
2023/12/08 08:07:01;;;;;;;75.50;28.02;;;;;;;;;;5057971;28;20013;-80
2023/12/08 08:09:27;;;;;;;74.25;29.85;;;;;;;;;;5066851;28;20016;-82
2023/12/08 08:11:53;;;;;;;76.05;29.40;;;;;;;;;;5053240;28;20017;-81
2023/12/08 08:14:20;;;;;;;69.60;28.67;;;;;;;;;;5051841;28;20013;-83
2023/12/08 08:16:47;;;;;;;79.07;32.10;;;;;;;;;;5048667;28;20021;-80
2023/12/08 08:19:13;;;;;;;74.28;29.52;;;;;;;;;;5058122;28;20020;-81
2023/12/08 08:21:39;;;;;;;78.57;29.33;;;;;;;;;;5047769;28;20443;-83
2023/12/08 08:24:06;;;;;;;77.32;29.35;;;;;;;;;;5050181;28;20014;-83
2023/12/08 08:26:32;;;;;;;78.65;29.48;;;;;;;;;;5055664;28;20061;-83
2023/12/08 08:28:58;;;;;;;75.47;28.83;;;;;;;;;;5047995;28;20376;-83
2023/12/08 08:31:24;;;;;;;71.75;29.35;;;;;;;;;;5050147;28;20446;-82
2023/12/08 08:33:50;;;;;;;71.28;28.05;;;;;;;;;;5049459;28;20035;-82
2023/12/08 08:36:16;;;;;;;74.65;28.88;;;;;;;;;;5049889;28;20028;-83
2023/12/08 08:38:42;;;;;;;76.53;30.20;;;;;;;;;;5048001;28;20082;-83
2023/12/08 08:41:08;;;;;;;77.82;30.70;;;;;;;;;;5049126;28;20098;-83
2023/12/08 08:43:34;;;;;;;77.03;30.60;;;;;;;;;;5050953;28;20012;-83
2023/12/08 08:46:00;;;;;;;79.95;31.42;;;;;;;;;;5050578;28;20045;-83
2023/12/08 08:48:27;;;;;;;79.13;29.90;;;;;;;;;;5047664;28;20493;-82
2023/12/08 08:50:53;;;;;;;72.88;27.65;;;;;;;;;;5067205;28;20043;-83
2023/12/08 08:53:19;;;;;;;71.95;27.40;;;;;;;;;;5058490;28;20396;-82
2023/12/08 08:55:45;;;;;;;78.57;29.40;;;;;;;;;;5054631;28;20013;-82
2023/12/08 08:58:11;;;;;;;79.88;28.73;;;;;;;;;;5066433;28;20027;-83
2023/12/08 09:00:37;;;;;;;75.75;29.67;;;;;;;;;;5064042;28;20431;-82
2023/12/08 09:03:03;;;;;;;75.43;29.83;;;;;;;;;;5062647;28;20024;-82
2023/12/08 09:05:30;;;;;;;77.95;29.60;;;;;;;;;;5050076;28;20067;-83
2023/12/08 09:07:56;;;;;;;77.63;29.05;;;;;;;;;;5048742;28;20424;-82
2023/12/08 09:10:23;;;;;;;75.47;28.27;;;;;;;;;;5053206;28;20533;-82
2023/12/08 09:12:49;;;;;;;74.80;29.40;;;;;;;;;;5050197;28;20082;-83
2023/12/08 09:15:15;;;;;;;78.72;29.00;;;;;;;;;;5052886;28;20017;-83
2023/12/08 09:17:41;;;;;;;84.63;30.13;;;;;;;;;;5048985;28;20083;-80
2023/12/08 09:20:13;;;;;;;81.90;29.40;;;;;;;;;;5055121;28;20089;-81
2023/12/08 09:22:39;;;;;;;77.95;29.27;;;;;;;;;;5056578;28;20024;-83
2023/12/08 09:25:06;;;;;;;79.90;29.85;;;;;;;;;;5054562;28;20013;-83
2023/12/08 09:27:32;;;;;;;80.20;30.02;;;;;;;;;;5062940;28;20545;-82
2023/12/08 09:29:58;;;;;;;86.03;31.52;;;;;;;;;;5069217;28;20022;-83
2023/12/08 09:32:24;;;;;;;79.93;30.33;;;;;;;;;;5051632;28;20024;-83
2023/12/08 09:34:50;;;;;;;81.47;29.95;;;;;;;;;;5069507;28;20013;-83
2023/12/08 09:37:16;;;;;;;83.13;28.38;;;;;;;;;;5052196;28;20400;-80
2023/12/08 09:39:43;;;;;;;83.38;28.95;;;;;;;;;;5059571;28;20045;-82
2023/12/08 09:42:14;;;;;;;81.78;28.73;;;;;;;;;;5064797;28;20012;-81
2023/12/08 09:44:40;;;;;;;79.88;29.80;;;;;;;;;;5049848;28;20637;-81
2023/12/08 09:47:08;;;;;;;76.45;28.50;;;;;;;;;;5052565;28;20031;-82
2023/12/08 09:49:42;;;;;;;78.70;28.30;;;;;;;;;;5052480;28;20021;-81
2023/12/08 09:52:09;;;;;;;75.95;28.25;;;;;;;;;;5051563;28;20021;-82
2023/12/08 09:54:35;;;;;;;91.13;30.05;;;;;;;;;;5056093;28;20601;-82
2023/12/08 09:57:03;;;;;;;81.18;30.00;;;;;;;;;;5065578;28;20449;-82
2023/12/08 09:59:29;;;;;;;74.03;27.40;;;;;;;;;;5054655;28;20017;-82
2023/12/08 10:01:56;;;;;;;66.95;24.42;;;;;;;;;;5068621;28;20345;-82
2023/12/08 10:04:26;;;;;;;69.72;25.27;;;;;;;;;;5058390;28;20081;-82
2023/12/08 10:06:52;;;;;;;73.20;25.55;;;;;;;;;;5057984;28;20526;-87
2023/12/08 10:09:19;;;;;;;64.63;25.35;;;;;;;;;;5059640;28;20010;-85
2023/12/08 10:11:45;;;;;;;70.45;24.88;;;;;;;;;;5055676;28;20066;-81
2023/12/08 10:14:15;;;;;;;61.95;23.75;;;;;;;;;;5061640;28;20096;-84
2023/12/08 10:16:44;;;;;;;70.80;24.23;;;;;;;;;;5055976;28;20024;-83
2023/12/08 10:19:10;;;;;;;75.63;26.65;;;;;;;;;;5050833;28;20055;-83
2023/12/08 10:21:36;;;;;;;80.80;28.33;;;;;;;;;;5065037;28;20464;-81
2023/12/08 10:24:03;;;;;;;72.35;27.77;;;;;;;;;;5061100;28;20009;-83
2023/12/08 10:26:29;;;;;;;78.47;28.58;;;;;;;;;;5070217;28;20154;-83
2023/12/08 10:28:59;;;;;;;82.63;28.90;;;;;;;;;;5051734;28;20061;-82
2023/12/08 10:31:26;;;;;;;83.90;28.98;;;;;;;;;;5056307;28;20021;-82
2023/12/08 10:33:52;;;;;;;75.55;26.75;;;;;;;;;;5059643;28;20067;-80
2023/12/08 10:36:19;;;;;;;75.85;26.02;;;;;;;;;;5057600;28;20020;-82
2023/12/08 10:38:46;;;;;;;72.70;23.48;;;;;;;;;;5054642;28;20020;-83
2023/12/08 10:41:13;;;;;;;81.38;29.08;;;;;;;;;;5049944;28;20688;-82
2023/12/08 10:43:39;;;;;;;70.32;26.83;;;;;;;;;;5057587;28;20013;-82
2023/12/08 10:46:08;;;;;;;81.30;27.17;;;;;;;;;;5052403;28;20049;-82
2023/12/08 10:48:35;;;;;;;76.75;26.67;;;;;;;;;;5050425;28;20481;-82
2023/12/08 10:51:01;;;;;;;77.95;27.17;;;;;;;;;;5052391;28;20452;-84
2023/12/08 10:53:27;;;;;;;75.72;24.73;;;;;;;;;;5056810;28;20020;-82
2023/12/08 10:56:13;;;;;;;80.47;27.20;;;;;;;;;;5067846;28;20388;-82
2023/12/08 10:58:44;;;;;;;83.53;28.25;;;;;;;;;;5043423;28;20101;-82
2023/12/08 11:01:12;;;;;;;78.32;25.75;;;;;;;;;;5051845;28;20112;-85
2023/12/08 11:03:40;;;;;;;80.25;27.42;;;;;;;;;;5070901;28;20415;-83
2023/12/08 11:06:07;;;;;;;80.30;28.50;;;;;;;;;;5068862;28;20070;-82
2023/12/08 11:08:33;;;;;;;74.07;25.45;;;;;;;;;;5057568;28;20252;-82
2023/12/08 11:11:00;;;;;;;82.63;27.70;;;;;;;;;;5069610;28;20017;-84
2023/12/08 11:13:27;;;;;;;79.32;26.35;;;;;;;;;;5055289;28;20021;-84
2023/12/08 11:16:09;;;;;;;83.90;27.63;;;;;;;;;;5058821;28;20036;-85
2023/12/08 11:18:36;;;;;;;84.53;27.20;;;;;;;;;;5034637;28;20393;-83
2023/12/08 11:21:09;;;;;;;79.63;27.02;;;;;;;;;;5060402;28;20086;-84
2023/12/08 11:23:36;;;;;;;80.70;28.20;;;;;;;;;;5055624;28;20033;-84
2023/12/08 11:26:08;;;;;;;83.88;27.77;;;;;;;;;;5052851;28;20006;-84
2023/12/08 11:28:52;;;;;;;85.15;27.73;;;;;;;;;;5052268;28;20050;-83
2023/12/08 11:31:24;;;;;;;78.35;27.00;;;;;;;;;;5049891;28;20108;-84
2023/12/08 11:33:57;;;;;;;87.18;26.88;;;;;;;;;;5050367;28;20500;-83
2023/12/08 11:36:23;;;;;;;88.82;27.00;;;;;;;;;;5053884;28;20021;-84
2023/12/08 11:38:50;;;;;;;88.90;27.45;;;;;;;;;;5050035;28;20028;-83
2023/12/08 11:41:16;;;;;;;84.22;27.15;;;;;;;;;;5051777;28;20043;-83
2023/12/08 11:43:46;;;;;;;85.20;27.00;;;;;;;;;;5054408;28;20480;-83
2023/12/08 11:46:12;;;;;;;85.53;27.00;;;;;;;;;;5050128;28;20005;-84
2023/12/08 11:48:38;;;;;;;83.10;27.10;;;;;;;;;;5049743;28;20017;-83
2023/12/08 11:51:10;;;;;;;86.45;25.25;;;;;;;;;;5066310;28;20016;-84
2023/12/08 11:53:48;;;;;;;84.35;26.67;;;;;;;;;;5054424;28;20426;-81
2023/12/08 11:56:33;;;;;;;97.03;25.83;;;;;;;;;;5061386;28;20013;-83
2023/12/08 11:59:02;;;;;;;90.90;25.75;;;;;;;;;;5050102;28;20020;-81
2023/12/08 12:01:29;;;;;;;172.30;29.80;;;;;;;;;;5067417;28;20016;-81
2023/12/08 12:03:56;;;;;;;86.32;25.65;;;;;;;;;;5064186;28;20008;-81
2023/12/08 12:06:23;;;;;;;91.82;25.38;;;;;;;;;;5065597;28;20117;-82
2023/12/08 12:08:50;;;;;;;77.15;24.98;;;;;;;;;;5052329;28;20016;-80
2023/12/08 12:11:18;;;;;;;79.95;23.50;;;;;;;;;;5053823;28;20035;-81
2023/12/08 12:13:44;;;;;;;78.05;24.77;;;;;;;;;;5058021;28;20025;-81
2023/12/08 12:16:10;;;;;;;70.65;23.40;;;;;;;;;;5065225;28;20134;-82
2023/12/08 12:18:36;;;;;;;71.30;23.90;;;;;;;;;;5053323;28;20021;-83
2023/12/08 12:21:02;;;;;;;75.22;24.70;;;;;;;;;;5052944;28;20119;-83
2023/12/08 12:23:28;;;;;;;65.68;22.90;;;;;;;;;;5049417;28;20335;-82
2023/12/08 12:25:54;;;;;;;65.57;24.27;;;;;;;;;;5052341;28;20426;-82
2023/12/08 12:28:20;;;;;;;71.05;24.30;;;;;;;;;;5055699;28;20017;-83
2023/12/08 12:30:49;;;;;;;65.18;23.58;;;;;;;;;;5057859;28;20456;-83
2023/12/08 12:33:15;;;;;;;72.75;24.50;;;;;;;;;;5058700;28;20045;-83
2023/12/08 12:35:42;;;;;;;63.72;22.17;;;;;;;;;;5052795;28;20020;-83
2023/12/08 12:38:08;;;;;;;70.30;23.20;;;;;;;;;;5054393;28;20029;-83
2023/12/08 12:40:34;;;;;;;62.72;22.67;;;;;;;;;;5053202;28;20129;-83
2023/12/08 12:43:00;;;;;;;68.30;23.42;;;;;;;;;;5060820;28;20453;-83
2023/12/08 12:45:28;;;;;;;73.28;23.27;;;;;;;;;;5061352;28;20024;-83
2023/12/08 12:48:10;;;;;;;88.90;24.92;;;;;;;;;;5051534;28;20028;-83
2023/12/08 12:50:45;;;;;;;69.68;23.25;;;;;;;;;;5051612;28;20051;-83
2023/12/08 12:53:11;;;;;;;78.18;24.45;;;;;;;;;;5053929;28;20038;-83
2023/12/08 12:55:37;;;;;;;76.32;23.85;;;;;;;;;;5052917;28;20017;-85
2023/12/08 12:58:05;;;;;;;74.28;24.65;;;;;;;;;;5072230;28;20345;-84
2023/12/08 13:00:32;;;;;;;77.60;24.17;;;;;;;;;;5054069;28;20473;-84
2023/12/08 13:03:05;;;;;;;105.63;28.88;;;;;;;;;;5073148;28;20017;-84
2023/12/08 13:05:31;;;;;;;99.47;27.30;;;;;;;;;;5071993;28;20021;-84
2023/12/08 13:07:57;;;;;;;96.22;28.10;;;;;;;;;;5070414;28;20013;-84
2023/12/08 13:10:23;;;;;;;102.05;26.65;;;;;;;;;;5053650;28;20021;-84
2023/12/08 13:12:50;;;;;;;72.85;24.83;;;;;;;;;;5050453;28;20033;-85
2023/12/08 13:15:17;;;;;;;75.85;23.58;;;;;;;;;;5044339;22;20024;-84
2023/12/08 13:17:43;;;;;;;81.72;23.98;;;;;;;;;;5014064;28;20037;-80
2023/12/08 13:20:09;;;;;;;98.88;25.45;;;;;;;;;;4993646;28;20076;-83
2023/12/08 13:22:35;;;;;;;75.97;24.20;;;;;;;;;;5018722;28;20030;-83
2023/12/08 13:25:02;;;;;;;86.15;24.95;;;;;;;;;;5026702;28;20024;-84
2023/12/08 13:27:28;;;;;;;97.93;24.58;;;;;;;;;;5031892;28;20013;-83
2023/12/08 13:29:54;;;;;;;79.85;24.40;;;;;;;;;;5031822;28;20180;-83
2023/12/08 13:32:20;;;;;;;84.68;24.00;;;;;;;;;;5032783;28;20044;-84
2023/12/08 13:34:46;;;;;;;75.97;23.90;;;;;;;;;;5020564;28;20044;-82
2023/12/08 13:37:12;;;;;;;78.32;24.27;;;;;;;;;;5013727;28;20018;-83
2023/12/08 13:39:38;;;;;;;88.95;24.75;;;;;;;;;;5021655;28;20022;-84
2023/12/08 13:42:05;;;;;;;92.05;24.75;;;;;;;;;;5015357;28;20034;-83
2023/12/08 13:44:31;;;;;;;80.10;23.55;;;;;;;;;;5015724;28;20477;-83
2023/12/08 13:46:57;;;;;;;92.35;24.13;;;;;;;;;;5013455;28;20450;-84
2023/12/08 13:49:23;;;;;;;127.18;25.25;;;;;;;;;;5013900;28;20017;-83
2023/12/08 13:51:49;;;;;;;75.15;23.55;;;;;;;;;;5014956;28;20018;-84
2023/12/08 13:54:15;;;;;;;81.78;24.02;;;;;;;;;;5012444;28;20524;-83
2023/12/08 13:56:41;;;;;;;79.20;23.50;;;;;;;;;;5009156;28;20389;-83
2023/12/08 13:59:07;;;;;;;98.97;23.73;;;;;;;;;;5010922;28;20028;-83
2023/12/08 14:01:33;;;;;;;80.82;23.75;;;;;;;;;;5010754;28;20049;-84
2023/12/08 14:03:59;;;;;;;79.70;23.20;;;;;;;;;;5012487;28;20248;-84
2023/12/08 14:06:25;;;;;;;79.93;24.00;;;;;;;;;;5013289;28;20041;-84
2023/12/08 14:08:52;;;;;;;75.68;22.73;;;;;;;;;;5012366;28;20025;-84
2023/12/08 14:11:18;;;;;;;81.72;22.55;;;;;;;;;;5013669;28;20031;-83
2023/12/08 14:13:44;;;;;;;83.35;23.30;;;;;;;;;;5009947;28;20040;-84